This demonstration page uses our WeatherBlox Daily Observations layout. Learn more.

39.01783, -85.05884

Hourly Observations for June 1, 2019

Temp ( °F °C ) Dew Point ( °F °C ) Humidity (%) Winds ( mph kmh ) Pressure ( in mb ) Visibility ( mi km ) Precip ( " mm )
12:52 am 00:52 Clear 63 17.2 60 15.6 90 90 Calm 29.85 1011 10 16.09344 0 0
1:52 am 01:52 Clear 64 17.8 60 15.6 87 87 W 7 11 29.85 1011 10 16.09344 0 0
2:52 am 02:52 Clear 61 16.1 58 14.4 90 90 SSE 5 7 29.85 1011 10 16.09344 0 0
3:52 am 03:52 Clear 60 15.6 58 14.4 93 93 SSW 3 6 29.85 1011 10 16.09344 0 0
4:52 am 04:52 Clear 60 15.6 58 14.4 93 93 Calm 29.85 1011 10 16.09344 0 0
5:52 am 05:52 Clear 60 15.6 58 14.4 93 93 Calm 29.88 1012 10 16.09344 0 0
6:52 am 06:52 Sunny 59 15 57 13.9 93 93 Calm 29.88 1012 9 14.484096 0 0
7:52 am 07:52 Sunny 62 16.7 60 15.6 93 93 Calm 29.88 1012 10 16.09344 0 0
8:52 am 08:52 Sunny 66 18.9 62 16.7 87 87 SW 3 6 29.91 1013 10 16.09344 0 0
9:52 am 09:52 Mostly Sunny 71 21.7 61 16.1 71 71 W 7 11 29.91 1013 10 16.09344 0 0
10:52 am 10:52 Sunny 75 23.9 62 16.7 64 64 SSW 6 9 29.88 1012 10 16.09344 0 0
12:52 pm 12:52 Mostly Cloudy 78 25.6 61 16.1 56 56 W 10 17 29.85 1011 10 16.09344 0 0
1:52 pm 13:52 Mostly Cloudy 79 26.1 62 16.7 56 56 SSW 10 17 29.85 1011 10 16.09344 0 0
2:52 pm 14:52 Mostly Cloudy 80 26.7 60 15.6 51 51 W 12 19 29.83 1010 10 16.09344 0 0
3:52 pm 15:52 Partly Cloudy 80 26.7 59 15 49 49 SW 9 15 29.83 1010 10 16.09344 0 0
4:52 pm 16:52 Mostly Cloudy 81 27.2 60 15.6 49 49 SW 10 17 29.83 1010 10 16.09344 0 0
5:52 pm 17:52 Mostly Sunny 81 27.2 59 15 47 47 W 12 19 29.8 1009 10 16.09344 0 0
6:52 pm 18:52 Mostly Sunny 79 26.1 60 15.6 52 52 SW 9 15 29.8 1009 10 16.09344 0 0
7:52 pm 19:52 Mostly Sunny 77 25 61 16.1 58 58 SW 7 11 29.77 1008 10 16.09344 0 0
8:52 pm 20:52 Partly Cloudy 74 23.3 61 16.1 64 64 SSW 5 7 29.77 1008 10 16.09344 0 0
9:52 pm 21:52 Partly Cloudy 71 21.7 60 15.6 68 68 SSW 6 9 29.8 1009 10 16.09344 0 0
10:52 pm 22:52 Mostly Clear 71 21.7 60 15.6 68 68 SW 8 13 29.8 1009 10 16.09344 0 0
11:52 pm 23:52 Mostly Clear 70 21.1 60 15.6 71 71 SSW 8 13 29.77 1008 10 16.09344 0 0

Powered by AerisWeather